sensor_id;sensor_type;location;lat;lon;timestamp;P1;durP1;ratioP1;P2;durP2;ratioP2
71104;SDS011;58760;48.716;8.962;2023-06-05T00:00:14;4.18;;;1.52;;
71104;SDS011;58760;48.716;8.962;2023-06-05T00:02:40;6.53;;;1.83;;
71104;SDS011;58760;48.716;8.962;2023-06-05T00:05:05;7.47;;;1.80;;
71104;SDS011;58760;48.716;8.962;2023-06-05T00:07:33;5.07;;;1.90;;
71104;SDS011;58760;48.716;8.962;2023-06-05T00:09:59;8.70;;;2.10;;
71104;SDS011;58760;48.716;8.962;2023-06-05T00:12:25;6.30;;;1.90;;
71104;SDS011;58760;48.716;8.962;2023-06-05T00:14:50;5.53;;;1.88;;
71104;SDS011;58760;48.716;8.962;2023-06-05T00:17:16;6.20;;;1.90;;
71104;SDS011;58760;48.716;8.962;2023-06-05T00:19:41;4.10;;;2.00;;
71104;SDS011;58760;48.716;8.962;2023-06-05T00:22:07;6.93;;;1.90;;
71104;SDS011;58760;48.716;8.962;2023-06-05T00:24:32;4.43;;;1.60;;
71104;SDS011;58760;48.716;8.962;2023-06-05T00:26:58;4.80;;;1.83;;
71104;SDS011;58760;48.716;8.962;2023-06-05T00:29:23;7.07;;;1.88;;
71104;SDS011;58760;48.716;8.962;2023-06-05T00:31:48;6.07;;;1.80;;
71104;SDS011;58760;48.716;8.962;2023-06-05T00:34:14;4.80;;;1.70;;
71104;SDS011;58760;48.716;8.962;2023-06-05T00:36:39;5.28;;;1.80;;
71104;SDS011;58760;48.716;8.962;2023-06-05T00:41:31;4.00;;;1.58;;
71104;SDS011;58760;48.716;8.962;2023-06-05T00:43:56;3.13;;;1.45;;
71104;SDS011;58760;48.716;8.962;2023-06-05T00:46:21;4.38;;;1.70;;
71104;SDS011;58760;48.716;8.962;2023-06-05T00:48:47;4.90;;;1.65;;
71104;SDS011;58760;48.716;8.962;2023-06-05T00:51:14;4.88;;;1.90;;
71104;SDS011;58760;48.716;8.962;2023-06-05T00:53:41;5.22;;;1.65;;
71104;SDS011;58760;48.716;8.962;2023-06-05T00:56:08;5.43;;;2.10;;
71104;SDS011;58760;48.716;8.962;2023-06-05T00:58:34;4.57;;;1.98;;
71104;SDS011;58760;48.716;8.962;2023-06-05T01:01:00;7.38;;;2.00;;
71104;SDS011;58760;48.716;8.962;2023-06-05T01:03:29;7.57;;;2.10;;
71104;SDS011;58760;48.716;8.962;2023-06-05T01:05:58;5.40;;;2.00;;
71104;SDS011;58760;48.716;8.962;2023-06-05T01:08:29;6.53;;;1.80;;
71104;SDS011;58760;48.716;8.962;2023-06-05T01:10:56;5.70;;;1.90;;
71104;SDS011;58760;48.716;8.962;2023-06-05T01:13:26;4.75;;;1.70;;
71104;SDS011;58760;48.716;8.962;2023-06-05T01:15:57;5.20;;;1.58;;
71104;SDS011;58760;48.716;8.962;2023-06-05T01:18:23;4.65;;;1.70;;
71104;SDS011;58760;48.716;8.962;2023-06-05T01:20:50;3.20;;;1.40;;
71104;SDS011;58760;48.716;8.962;2023-06-05T01:23:15;6.95;;;2.00;;
71104;SDS011;58760;48.716;8.962;2023-06-05T01:25:41;5.50;;;1.48;;
71104;SDS011;58760;48.716;8.962;2023-06-05T01:28:14;5.30;;;1.67;;
71104;SDS011;58760;48.716;8.962;2023-06-05T01:30:48;4.57;;;1.77;;
71104;SDS011;58760;48.716;8.962;2023-06-05T01:33:30;4.65;;;1.60;;
71104;SDS011;58760;48.716;8.962;2023-06-05T01:36:06;6.22;;;1.52;;
71104;SDS011;58760;48.716;8.962;2023-06-05T01:38:35;4.38;;;1.75;;
71104;SDS011;58760;48.716;8.962;2023-06-05T01:41:01;4.75;;;1.67;;
71104;SDS011;58760;48.716;8.962;2023-06-05T01:43:29;5.68;;;2.05;;
71104;SDS011;58760;48.716;8.962;2023-06-05T01:45:55;4.30;;;1.70;;
71104;SDS011;58760;48.716;8.962;2023-06-05T01:48:24;5.55;;;1.70;;
71104;SDS011;58760;48.716;8.962;2023-06-05T01:50:54;5.20;;;2.20;;
71104;SDS011;58760;48.716;8.962;2023-06-05T01:53:20;6.00;;;1.70;;
71104;SDS011;58760;48.716;8.962;2023-06-05T01:55:45;3.75;;;1.50;;
71104;SDS011;58760;48.716;8.962;2023-06-05T01:58:11;5.95;;;1.80;;
71104;SDS011;58760;48.716;8.962;2023-06-05T02:00:37;4.63;;;1.70;;
71104;SDS011;58760;48.716;8.962;2023-06-05T02:03:02;4.72;;;2.00;;
71104;SDS011;58760;48.716;8.962;2023-06-05T02:05:28;9.32;;;2.15;;
71104;SDS011;58760;48.716;8.962;2023-06-05T02:07:54;4.60;;;1.75;;
71104;SDS011;58760;48.716;8.962;2023-06-05T02:10:23;5.68;;;1.70;;
71104;SDS011;58760;48.716;8.962;2023-06-05T02:12:49;3.90;;;1.70;;
71104;SDS011;58760;48.716;8.962;2023-06-05T02:15:14;3.85;;;1.80;;
71104;SDS011;58760;48.716;8.962;2023-06-05T02:17:43;4.20;;;1.60;;
71104;SDS011;58760;48.716;8.962;2023-06-05T02:20:18;10.60;;;2.05;;
71104;SDS011;58760;48.716;8.962;2023-06-05T02:22:44;5.65;;;1.98;;
71104;SDS011;58760;48.716;8.962;2023-06-05T02:25:10;4.85;;;1.70;;
71104;SDS011;58760;48.716;8.962;2023-06-05T02:27:37;4.13;;;1.70;;
71104;SDS011;58760;48.716;8.962;2023-06-05T02:30:02;4.60;;;1.70;;
71104;SDS011;58760;48.716;8.962;2023-06-05T02:32:28;4.05;;;1.70;;
71104;SDS011;58760;48.716;8.962;2023-06-05T02:34:57;4.53;;;1.77;;
71104;SDS011;58760;48.716;8.962;2023-06-05T02:37:24;4.03;;;1.60;;
71104;SDS011;58760;48.716;8.962;2023-06-05T02:39:50;4.32;;;1.95;;
71104;SDS011;58760;48.716;8.962;2023-06-05T02:42:15;4.57;;;1.70;;
71104;SDS011;58760;48.716;8.962;2023-06-05T02:44:41;4.43;;;1.63;;
71104;SDS011;58760;48.716;8.962;2023-06-05T02:47:07;5.80;;;1.88;;
71104;SDS011;58760;48.716;8.962;2023-06-05T02:49:32;5.82;;;2.15;;
71104;SDS011;58760;48.716;8.962;2023-06-05T02:51:58;4.60;;;1.85;;
71104;SDS011;58760;48.716;8.962;2023-06-05T02:54:24;4.97;;;1.80;;
71104;SDS011;58760;48.716;8.962;2023-06-05T02:56:53;3.42;;;1.75;;
71104;SDS011;58760;48.716;8.962;2023-06-05T02:59:19;5.00;;;1.70;;
71104;SDS011;58760;48.716;8.962;2023-06-05T03:01:48;5.60;;;2.03;;
71104;SDS011;58760;48.716;8.962;2023-06-05T03:04:15;4.78;;;1.92;;
71104;SDS011;58760;48.716;8.962;2023-06-05T03:06:46;6.07;;;1.90;;
71104;SDS011;58760;48.716;8.962;2023-06-05T03:09:14;5.88;;;1.70;;
71104;SDS011;58760;48.716;8.962;2023-06-05T03:11:39;6.15;;;1.70;;
71104;SDS011;58760;48.716;8.962;2023-06-05T03:14:05;3.67;;;1.60;;
71104;SDS011;58760;48.716;8.962;2023-06-05T03:16:31;5.70;;;2.00;;
71104;SDS011;58760;48.716;8.962;2023-06-05T03:19:02;3.33;;;1.52;;
71104;SDS011;58760;48.716;8.962;2023-06-05T03:21:28;5.60;;;1.92;;
71104;SDS011;58760;48.716;8.962;2023-06-05T03:23:53;5.45;;;1.70;;
71104;SDS011;58760;48.716;8.962;2023-06-05T03:26:18;4.85;;;1.80;;
71104;SDS011;58760;48.716;8.962;2023-06-05T03:28:44;4.72;;;1.95;;
71104;SDS011;58760;48.716;8.962;2023-06-05T03:31:09;4.30;;;1.52;;
71104;SDS011;58760;48.716;8.962;2023-06-05T03:33:35;4.35;;;2.15;;
71104;SDS011;58760;48.716;8.962;2023-06-05T03:36:00;5.22;;;1.77;;
71104;SDS011;58760;48.716;8.962;2023-06-05T03:38:27;5.00;;;1.92;;
71104;SDS011;58760;48.716;8.962;2023-06-05T03:40:52;6.20;;;2.10;;
71104;SDS011;58760;48.716;8.962;2023-06-05T03:43:17;5.90;;;2.03;;
71104;SDS011;58760;48.716;8.962;2023-06-05T03:45:43;5.03;;;1.70;;
71104;SDS011;58760;48.716;8.962;2023-06-05T03:48:08;4.40;;;2.00;;
71104;SDS011;58760;48.716;8.962;2023-06-05T03:50:36;4.10;;;1.65;;
71104;SDS011;58760;48.716;8.962;2023-06-05T03:53:06;4.72;;;1.70;;
71104;SDS011;58760;48.716;8.962;2023-06-05T03:55:34;7.93;;;1.80;;
71104;SDS011;58760;48.716;8.962;2023-06-05T03:58:09;5.00;;;1.80;;
71104;SDS011;58760;48.716;8.962;2023-06-05T04:00:42;5.72;;;2.28;;
71104;SDS011;58760;48.716;8.962;2023-06-05T04:03:11;5.47;;;2.10;;
71104;SDS011;58760;48.716;8.962;2023-06-05T04:05:38;7.72;;;1.92;;
71104;SDS011;58760;48.716;8.962;2023-06-05T04:08:04;4.93;;;1.92;;
71104;SDS011;58760;48.716;8.962;2023-06-05T04:10:30;7.07;;;2.22;;
71104;SDS011;58760;48.716;8.962;2023-06-05T04:12:56;6.38;;;2.03;;
71104;SDS011;58760;48.716;8.962;2023-06-05T04:15:25;6.72;;;1.73;;
71104;SDS011;58760;48.716;8.962;2023-06-05T04:17:51;5.85;;;1.92;;
71104;SDS011;58760;48.716;8.962;2023-06-05T04:20:17;5.00;;;1.80;;
71104;SDS011;58760;48.716;8.962;2023-06-05T04:22:43;5.28;;;2.10;;
71104;SDS011;58760;48.716;8.962;2023-06-05T04:25:08;4.50;;;1.83;;
71104;SDS011;58760;48.716;8.962;2023-06-05T04:27:40;7.05;;;2.20;;
71104;SDS011;58760;48.716;8.962;2023-06-05T04:30:07;6.93;;;2.17;;
71104;SDS011;58760;48.716;8.962;2023-06-05T04:32:34;5.18;;;2.13;;
71104;SDS011;58760;48.716;8.962;2023-06-05T04:35:04;4.90;;;2.10;;
71104;SDS011;58760;48.716;8.962;2023-06-05T04:37:30;7.85;;;2.55;;
71104;SDS011;58760;48.716;8.962;2023-06-05T04:39:56;4.63;;;1.92;;
71104;SDS011;58760;48.716;8.962;2023-06-05T04:42:23;9.43;;;2.55;;
71104;SDS011;58760;48.716;8.962;2023-06-05T04:44:58;6.28;;;2.10;;
71104;SDS011;58760;48.716;8.962;2023-06-05T04:47:28;6.03;;;2.10;;
71104;SDS011;58760;48.716;8.962;2023-06-05T04:49:54;6.18;;;2.00;;
71104;SDS011;58760;48.716;8.962;2023-06-05T04:52:20;6.45;;;2.40;;
71104;SDS011;58760;48.716;8.962;2023-06-05T04:54:46;5.13;;;2.25;;
71104;SDS011;58760;48.716;8.962;2023-06-05T04:57:12;5.50;;;2.95;;
71104;SDS011;58760;48.716;8.962;2023-06-05T04:59:37;6.03;;;2.28;;
71104;SDS011;58760;48.716;8.962;2023-06-05T05:02:03;5.88;;;2.30;;
71104;SDS011;58760;48.716;8.962;2023-06-05T05:04:29;6.75;;;2.22;;
71104;SDS011;58760;48.716;8.962;2023-06-05T05:06:55;6.90;;;1.88;;
71104;SDS011;58760;48.716;8.962;2023-06-05T05:09:26;4.93;;;1.80;;
71104;SDS011;58760;48.716;8.962;2023-06-05T05:12:00;6.07;;;2.20;;
71104;SDS011;58760;48.716;8.962;2023-06-05T05:14:26;7.53;;;2.25;;
71104;SDS011;58760;48.716;8.962;2023-06-05T05:16:52;5.78;;;2.20;;
71104;SDS011;58760;48.716;8.962;2023-06-05T05:19:18;7.75;;;2.15;;
71104;SDS011;58760;48.716;8.962;2023-06-05T05:21:45;6.45;;;2.63;;
71104;SDS011;58760;48.716;8.962;2023-06-05T05:24:10;7.90;;;2.03;;
71104;SDS011;58760;48.716;8.962;2023-06-05T05:26:36;8.93;;;2.00;;
71104;SDS011;58760;48.716;8.962;2023-06-05T05:29:01;8.57;;;2.20;;
71104;SDS011;58760;48.716;8.962;2023-06-05T05:31:26;9.82;;;1.90;;
71104;SDS011;58760;48.716;8.962;2023-06-05T05:33:54;8.63;;;2.30;;
71104;SDS011;58760;48.716;8.962;2023-06-05T05:36:20;4.97;;;1.85;;
71104;SDS011;58760;48.716;8.962;2023-06-05T05:38:45;5.43;;;1.98;;
71104;SDS011;58760;48.716;8.962;2023-06-05T05:41:11;6.35;;;1.85;;
71104;SDS011;58760;48.716;8.962;2023-06-05T05:43:36;7.55;;;2.10;;
71104;SDS011;58760;48.716;8.962;2023-06-05T05:46:02;7.70;;;2.20;;
71104;SDS011;58760;48.716;8.962;2023-06-05T05:48:27;5.78;;;1.90;;
71104;SDS011;58760;48.716;8.962;2023-06-05T05:50:52;8.77;;;2.03;;
71104;SDS011;58760;48.716;8.962;2023-06-05T05:53:18;10.38;;;2.08;;
71104;SDS011;58760;48.716;8.962;2023-06-05T05:55:43;9.75;;;2.10;;
71104;SDS011;58760;48.716;8.962;2023-06-05T05:58:09;6.85;;;2.30;;
71104;SDS011;58760;48.716;8.962;2023-06-05T06:00:34;6.10;;;2.03;;
71104;SDS011;58760;48.716;8.962;2023-06-05T06:03:00;12.27;;;1.88;;
71104;SDS011;58760;48.716;8.962;2023-06-05T06:05:25;7.53;;;2.17;;
71104;SDS011;58760;48.716;8.962;2023-06-05T06:07:51;9.77;;;2.45;;
71104;SDS011;58760;48.716;8.962;2023-06-05T06:10:16;10.35;;;2.10;;
71104;SDS011;58760;48.716;8.962;2023-06-05T06:12:42;7.68;;;2.20;;
71104;SDS011;58760;48.716;8.962;2023-06-05T06:15:09;7.13;;;2.35;;
71104;SDS011;58760;48.716;8.962;2023-06-05T06:17:35;10.98;;;2.80;;
71104;SDS011;58760;48.716;8.962;2023-06-05T06:20:00;7.95;;;2.42;;
71104;SDS011;58760;48.716;8.962;2023-06-05T06:22:27;7.78;;;2.05;;
71104;SDS011;58760;48.716;8.962;2023-06-05T06:24:52;5.32;;;2.10;;
71104;SDS011;58760;48.716;8.962;2023-06-05T06:27:18;6.07;;;2.00;;
71104;SDS011;58760;48.716;8.962;2023-06-05T06:29:51;7.35;;;2.40;;
71104;SDS011;58760;48.716;8.962;2023-06-05T06:32:20;6.18;;;2.30;;
71104;SDS011;58760;48.716;8.962;2023-06-05T06:34:47;6.05;;;2.13;;
71104;SDS011;58760;48.716;8.962;2023-06-05T06:37:12;5.05;;;2.40;;
71104;SDS011;58760;48.716;8.962;2023-06-05T06:39:39;7.15;;;2.20;;
71104;SDS011;58760;48.716;8.962;2023-06-05T06:42:05;11.30;;;2.45;;
71104;SDS011;58760;48.716;8.962;2023-06-05T06:44:30;8.68;;;2.40;;
71104;SDS011;58760;48.716;8.962;2023-06-05T06:46:56;8.00;;;1.90;;
71104;SDS011;58760;48.716;8.962;2023-06-05T06:49:21;5.03;;;2.05;;
71104;SDS011;58760;48.716;8.962;2023-06-05T06:51:47;6.05;;;2.22;;
71104;SDS011;58760;48.716;8.962;2023-06-05T06:54:12;8.55;;;2.08;;
71104;SDS011;58760;48.716;8.962;2023-06-05T06:56:37;4.45;;;2.00;;
71104;SDS011;58760;48.716;8.962;2023-06-05T06:59:10;7.90;;;2.00;;
71104;SDS011;58760;48.716;8.962;2023-06-05T07:04:05;4.93;;;2.00;;
71104;SDS011;58760;48.716;8.962;2023-06-05T07:06:30;4.65;;;2.38;;
71104;SDS011;58760;48.716;8.962;2023-06-05T07:08:57;5.50;;;2.10;;
71104;SDS011;58760;48.716;8.962;2023-06-05T07:11:22;6.50;;;2.17;;
71104;SDS011;58760;48.716;8.962;2023-06-05T07:13:47;8.98;;;2.42;;
71104;SDS011;58760;48.716;8.962;2023-06-05T07:16:13;7.35;;;2.30;;
71104;SDS011;58760;48.716;8.962;2023-06-05T07:18:38;7.00;;;2.33;;
71104;SDS011;58760;48.716;8.962;2023-06-05T07:21:05;7.95;;;2.25;;
71104;SDS011;58760;48.716;8.962;2023-06-05T07:23:31;5.18;;;2.30;;
71104;SDS011;58760;48.716;8.962;2023-06-05T07:25:57;8.57;;;2.38;;
71104;SDS011;58760;48.716;8.962;2023-06-05T07:28:22;9.63;;;2.72;;
71104;SDS011;58760;48.716;8.962;2023-06-05T07:30:49;5.82;;;2.65;;
71104;SDS011;58760;48.716;8.962;2023-06-05T07:33:15;5.35;;;2.25;;
71104;SDS011;58760;48.716;8.962;2023-06-05T07:35:42;7.25;;;2.70;;
71104;SDS011;58760;48.716;8.962;2023-06-05T07:38:07;5.80;;;2.47;;
71104;SDS011;58760;48.716;8.962;2023-06-05T07:40:33;4.78;;;2.28;;
71104;SDS011;58760;48.716;8.962;2023-06-05T07:42:58;5.78;;;2.22;;
71104;SDS011;58760;48.716;8.962;2023-06-05T07:45:24;5.13;;;2.30;;
71104;SDS011;58760;48.716;8.962;2023-06-05T07:47:50;6.75;;;2.42;;
71104;SDS011;58760;48.716;8.962;2023-06-05T07:50:15;5.25;;;2.58;;
71104;SDS011;58760;48.716;8.962;2023-06-05T07:52:40;5.90;;;2.72;;
71104;SDS011;58760;48.716;8.962;2023-06-05T07:55:06;5.97;;;2.53;;
71104;SDS011;58760;48.716;8.962;2023-06-05T07:57:32;6.72;;;2.72;;
71104;SDS011;58760;48.716;8.962;2023-06-05T07:59:58;6.22;;;3.47;;
71104;SDS011;58760;48.716;8.962;2023-06-05T08:02:23;9.27;;;3.00;;
71104;SDS011;58760;48.716;8.962;2023-06-05T08:04:49;11.32;;;2.90;;
71104;SDS011;58760;48.716;8.962;2023-06-05T08:07:15;5.40;;;2.28;;
71104;SDS011;58760;48.716;8.962;2023-06-05T08:09:40;5.22;;;2.58;;
71104;SDS011;58760;48.716;8.962;2023-06-05T08:12:06;8.48;;;2.88;;
71104;SDS011;58760;48.716;8.962;2023-06-05T08:14:32;5.55;;;2.60;;
71104;SDS011;58760;48.716;8.962;2023-06-05T08:16:58;5.97;;;2.67;;
71104;SDS011;58760;48.716;8.962;2023-06-05T08:19:24;6.05;;;2.80;;
71104;SDS011;58760;48.716;8.962;2023-06-05T08:21:50;7.35;;;3.28;;
71104;SDS011;58760;48.716;8.962;2023-06-05T08:24:20;6.13;;;2.65;;
71104;SDS011;58760;48.716;8.962;2023-06-05T08:26:45;7.72;;;3.10;;
71104;SDS011;58760;48.716;8.962;2023-06-05T08:29:11;9.35;;;3.40;;
71104;SDS011;58760;48.716;8.962;2023-06-05T08:31:37;6.28;;;2.80;;
71104;SDS011;58760;48.716;8.962;2023-06-05T08:34:03;6.60;;;3.22;;
71104;SDS011;58760;48.716;8.962;2023-06-05T08:36:30;8.45;;;3.58;;
71104;SDS011;58760;48.716;8.962;2023-06-05T08:38:57;8.18;;;3.13;;
71104;SDS011;58760;48.716;8.962;2023-06-05T08:41:23;11.60;;;4.43;;
71104;SDS011;58760;48.716;8.962;2023-06-05T08:43:50;6.85;;;3.30;;
71104;SDS011;58760;48.716;8.962;2023-06-05T08:46:16;6.93;;;3.70;;
71104;SDS011;58760;48.716;8.962;2023-06-05T08:48:43;8.68;;;3.80;;
71104;SDS011;58760;48.716;8.962;2023-06-05T08:51:10;10.05;;;3.58;;
71104;SDS011;58760;48.716;8.962;2023-06-05T08:53:39;7.85;;;3.60;;
71104;SDS011;58760;48.716;8.962;2023-06-05T08:56:06;7.10;;;3.60;;
71104;SDS011;58760;48.716;8.962;2023-06-05T08:58:33;12.57;;;3.97;;
71104;SDS011;58760;48.716;8.962;2023-06-05T09:01:00;7.05;;;3.40;;
71104;SDS011;58760;48.716;8.962;2023-06-05T09:05:54;9.35;;;3.65;;
71104;SDS011;58760;48.716;8.962;2023-06-05T09:08:32;10.52;;;3.90;;
71104;SDS011;58760;48.716;8.962;2023-06-05T09:13:50;8.00;;;4.80;;
71104;SDS011;58760;48.716;8.962;2023-06-05T09:16:31;10.35;;;3.88;;
71104;SDS011;58760;48.716;8.962;2023-06-05T09:18:59;9.48;;;3.72;;
71104;SDS011;58760;48.716;8.962;2023-06-05T09:21:25;10.05;;;4.28;;
71104;SDS011;58760;48.716;8.962;2023-06-05T09:24:18;10.05;;;3.88;;
71104;SDS011;58760;48.716;8.962;2023-06-05T09:29:34;8.00;;;3.30;;
71104;SDS011;58760;48.716;8.962;2023-06-05T09:32:02;7.72;;;3.55;;
71104;SDS011;58760;48.716;8.962;2023-06-05T09:34:36;7.28;;;3.83;;
71104;SDS011;58760;48.716;8.962;2023-06-05T09:37:04;7.28;;;3.90;;
71104;SDS011;58760;48.716;8.962;2023-06-05T09:39:34;9.65;;;4.30;;
71104;SDS011;58760;48.716;8.962;2023-06-05T09:42:01;6.88;;;3.50;;
71104;SDS011;58760;48.716;8.962;2023-06-05T09:46:54;8.88;;;3.88;;
71104;SDS011;58760;48.716;8.962;2023-06-05T09:49:20;10.48;;;4.18;;
71104;SDS011;58760;48.716;8.962;2023-06-05T09:51:46;6.32;;;3.45;;
71104;SDS011;58760;48.716;8.962;2023-06-05T09:56:43;8.38;;;3.78;;
71104;SDS011;58760;48.716;8.962;2023-06-05T09:59:15;12.90;;;3.88;;
71104;SDS011;58760;48.716;8.962;2023-06-05T10:01:43;7.20;;;3.40;;
71104;SDS011;58760;48.716;8.962;2023-06-05T10:04:11;9.02;;;4.05;;
71104;SDS011;58760;48.716;8.962;2023-06-05T10:06:40;7.70;;;3.60;;
71104;SDS011;58760;48.716;8.962;2023-06-05T10:09:07;8.98;;;3.50;;
71104;SDS011;58760;48.716;8.962;2023-06-05T10:11:34;7.50;;;3.47;;
71104;SDS011;58760;48.716;8.962;2023-06-05T10:16:26;7.57;;;3.17;;
71104;SDS011;58760;48.716;8.962;2023-06-05T10:18:55;8.75;;;3.72;;
71104;SDS011;58760;48.716;8.962;2023-06-05T10:21:22;10.30;;;3.78;;
71104;SDS011;58760;48.716;8.962;2023-06-05T10:23:48;7.45;;;3.60;;
71104;SDS011;58760;48.716;8.962;2023-06-05T10:31:57;6.75;;;3.08;;
71104;SDS011;58760;48.716;8.962;2023-06-05T10:34:34;7.22;;;3.55;;
71104;SDS011;58760;48.716;8.962;2023-06-05T10:40:19;7.57;;;3.60;;
71104;SDS011;58760;48.716;8.962;2023-06-05T10:42:45;8.20;;;3.53;;
71104;SDS011;58760;48.716;8.962;2023-06-05T10:52:46;6.32;;;3.20;;
71104;SDS011;58760;48.716;8.962;2023-06-05T10:55:12;8.30;;;3.28;;
71104;SDS011;58760;48.716;8.962;2023-06-05T11:00:28;7.20;;;3.45;;
71104;SDS011;58760;48.716;8.962;2023-06-05T11:02:54;7.07;;;3.25;;
71104;SDS011;58760;48.716;8.962;2023-06-05T11:07:45;10.45;;;3.65;;
71104;SDS011;58760;48.716;8.962;2023-06-05T11:17:34;6.13;;;3.20;;
71104;SDS011;58760;48.716;8.962;2023-06-05T11:30:21;11.85;;;2.92;;
71104;SDS011;58760;48.716;8.962;2023-06-05T11:32:50;8.30;;;2.97;;
71104;SDS011;58760;48.716;8.962;2023-06-05T11:35:24;6.60;;;3.13;;
71104;SDS011;58760;48.716;8.962;2023-06-05T11:38:12;10.55;;;3.40;;
71104;SDS011;58760;48.716;8.962;2023-06-05T11:40:42;9.10;;;3.20;;
71104;SDS011;58760;48.716;8.962;2023-06-05T11:43:09;7.80;;;3.72;;
71104;SDS011;58760;48.716;8.962;2023-06-05T11:45:37;11.48;;;3.25;;
71104;SDS011;58760;48.716;8.962;2023-06-05T11:48:10;6.47;;;2.95;;
71104;SDS011;58760;48.716;8.962;2023-06-05T11:53:17;6.35;;;3.30;;
71104;SDS011;58760;48.716;8.962;2023-06-05T11:55:43;7.45;;;2.58;;
71104;SDS011;58760;48.716;8.962;2023-06-05T12:00:48;6.82;;;3.42;;
71104;SDS011;58760;48.716;8.962;2023-06-05T12:03:18;10.07;;;2.90;;
71104;SDS011;58760;48.716;8.962;2023-06-05T12:05:44;7.47;;;2.90;;
71104;SDS011;58760;48.716;8.962;2023-06-05T12:08:26;7.97;;;2.45;;
71104;SDS011;58760;48.716;8.962;2023-06-05T12:10:54;5.38;;;2.40;;
71104;SDS011;58760;48.716;8.962;2023-06-05T12:13:21;5.13;;;2.60;;
71104;SDS011;58760;48.716;8.962;2023-06-05T12:15:57;7.30;;;2.75;;
71104;SDS011;58760;48.716;8.962;2023-06-05T12:18:32;9.43;;;2.78;;
71104;SDS011;58760;48.716;8.962;2023-06-05T12:20:58;6.07;;;2.83;;
71104;SDS011;58760;48.716;8.962;2023-06-05T12:23:24;5.97;;;2.50;;
71104;SDS011;58760;48.716;8.962;2023-06-05T12:25:59;10.25;;;2.42;;
71104;SDS011;58760;48.716;8.962;2023-06-05T12:28:26;7.47;;;2.60;;
71104;SDS011;58760;48.716;8.962;2023-06-05T12:30:52;7.45;;;2.75;;
71104;SDS011;58760;48.716;8.962;2023-06-05T12:33:18;7.18;;;2.70;;
71104;SDS011;58760;48.716;8.962;2023-06-05T12:35:45;5.57;;;2.45;;
71104;SDS011;58760;48.716;8.962;2023-06-05T12:38:11;6.70;;;2.55;;
71104;SDS011;58760;48.716;8.962;2023-06-05T12:40:36;7.60;;;2.47;;
71104;SDS011;58760;48.716;8.962;2023-06-05T12:43:02;10.07;;;2.90;;
71104;SDS011;58760;48.716;8.962;2023-06-05T12:45:27;6.57;;;2.70;;
71104;SDS011;58760;48.716;8.962;2023-06-05T12:47:55;5.53;;;2.67;;
71104;SDS011;58760;48.716;8.962;2023-06-05T12:50:20;5.80;;;2.67;;
71104;SDS011;58760;48.716;8.962;2023-06-05T12:52:46;6.28;;;2.88;;
71104;SDS011;58760;48.716;8.962;2023-06-05T12:55:12;9.48;;;2.70;;
71104;SDS011;58760;48.716;8.962;2023-06-05T12:57:38;6.22;;;2.45;;
71104;SDS011;58760;48.716;8.962;2023-06-05T13:00:04;5.57;;;2.40;;
71104;SDS011;58760;48.716;8.962;2023-06-05T13:02:36;6.03;;;2.10;;
71104;SDS011;58760;48.716;8.962;2023-06-05T13:05:02;7.28;;;2.70;;
71104;SDS011;58760;48.716;8.962;2023-06-05T13:07:31;8.02;;;2.70;;
71104;SDS011;58760;48.716;8.962;2023-06-05T13:09:57;6.35;;;2.70;;
71104;SDS011;58760;48.716;8.962;2023-06-05T13:12:22;6.25;;;2.80;;
71104;SDS011;58760;48.716;8.962;2023-06-05T13:14:47;6.60;;;2.40;;
71104;SDS011;58760;48.716;8.962;2023-06-05T13:17:13;6.47;;;2.47;;
71104;SDS011;58760;48.716;8.962;2023-06-05T13:19:39;6.45;;;2.83;;
71104;SDS011;58760;48.716;8.962;2023-06-05T13:22:05;9.35;;;2.95;;
71104;SDS011;58760;48.716;8.962;2023-06-05T13:24:30;7.03;;;2.67;;
71104;SDS011;58760;48.716;8.962;2023-06-05T13:26:56;6.57;;;2.33;;
71104;SDS011;58760;48.716;8.962;2023-06-05T13:29:22;11.98;;;2.70;;
71104;SDS011;58760;48.716;8.962;2023-06-05T13:31:47;7.47;;;2.50;;
71104;SDS011;58760;48.716;8.962;2023-06-05T13:34:13;6.22;;;2.65;;
71104;SDS011;58760;48.716;8.962;2023-06-05T13:36:38;8.63;;;2.40;;
71104;SDS011;58760;48.716;8.962;2023-06-05T13:39:04;7.18;;;2.75;;
71104;SDS011;58760;48.716;8.962;2023-06-05T13:41:29;7.63;;;2.85;;
71104;SDS011;58760;48.716;8.962;2023-06-05T13:43:55;8.05;;;2.72;;
71104;SDS011;58760;48.716;8.962;2023-06-05T13:46:23;13.20;;;2.72;;
71104;SDS011;58760;48.716;8.962;2023-06-05T13:48:49;6.20;;;2.63;;
71104;SDS011;58760;48.716;8.962;2023-06-05T13:51:14;9.35;;;3.13;;
71104;SDS011;58760;48.716;8.962;2023-06-05T13:53:40;6.75;;;2.80;;
71104;SDS011;58760;48.716;8.962;2023-06-05T13:56:06;7.20;;;2.92;;
71104;SDS011;58760;48.716;8.962;2023-06-05T13:58:31;5.50;;;2.85;;
71104;SDS011;58760;48.716;8.962;2023-06-05T14:00:57;7.38;;;3.00;;
71104;SDS011;58760;48.716;8.962;2023-06-05T14:03:23;8.90;;;3.10;;
71104;SDS011;58760;48.716;8.962;2023-06-05T14:05:49;6.43;;;2.90;;
71104;SDS011;58760;48.716;8.962;2023-06-05T14:08:15;8.32;;;2.90;;
71104;SDS011;58760;48.716;8.962;2023-06-05T14:10:41;5.38;;;2.47;;
71104;SDS011;58760;48.716;8.962;2023-06-05T14:13:06;6.45;;;2.70;;
71104;SDS011;58760;48.716;8.962;2023-06-05T14:15:31;7.13;;;2.85;;
71104;SDS011;58760;48.716;8.962;2023-06-05T14:18:01;6.25;;;2.65;;
71104;SDS011;58760;48.716;8.962;2023-06-05T14:20:28;10.30;;;3.20;;
71104;SDS011;58760;48.716;8.962;2023-06-05T14:23:00;9.07;;;2.85;;
71104;SDS011;58760;48.716;8.962;2023-06-05T14:25:26;10.68;;;3.08;;
71104;SDS011;58760;48.716;8.962;2023-06-05T14:27:56;8.02;;;3.00;;
71104;SDS011;58760;48.716;8.962;2023-06-05T14:30:22;7.18;;;2.63;;
71104;SDS011;58760;48.716;8.962;2023-06-05T14:32:48;6.20;;;2.83;;
71104;SDS011;58760;48.716;8.962;2023-06-05T14:35:14;9.18;;;2.90;;
71104;SDS011;58760;48.716;8.962;2023-06-05T14:37:41;8.07;;;3.00;;
71104;SDS011;58760;48.716;8.962;2023-06-05T14:40:09;9.90;;;3.30;;
71104;SDS011;58760;48.716;8.962;2023-06-05T14:42:35;9.27;;;3.00;;
71104;SDS011;58760;48.716;8.962;2023-06-05T14:45:00;7.93;;;3.15;;
71104;SDS011;58760;48.716;8.962;2023-06-05T14:47:27;6.88;;;3.20;;
71104;SDS011;58760;48.716;8.962;2023-06-05T14:49:52;7.38;;;2.85;;
71104;SDS011;58760;48.716;8.962;2023-06-05T14:52:18;10.45;;;3.03;;
71104;SDS011;58760;48.716;8.962;2023-06-05T14:54:43;10.32;;;3.08;;
71104;SDS011;58760;48.716;8.962;2023-06-05T14:57:09;8.02;;;3.00;;
71104;SDS011;58760;48.716;8.962;2023-06-05T14:59:35;7.03;;;2.90;;
71104;SDS011;58760;48.716;8.962;2023-06-05T15:02:00;7.05;;;2.90;;
71104;SDS011;58760;48.716;8.962;2023-06-05T15:04:26;7.80;;;3.22;;
71104;SDS011;58760;48.716;8.962;2023-06-05T15:06:53;8.13;;;3.30;;
71104;SDS011;58760;48.716;8.962;2023-06-05T15:09:19;6.15;;;3.10;;
71104;SDS011;58760;48.716;8.962;2023-06-05T15:11:44;7.63;;;2.72;;
71104;SDS011;58760;48.716;8.962;2023-06-05T15:14:10;7.97;;;3.10;;
71104;SDS011;58760;48.716;8.962;2023-06-05T15:16:35;7.10;;;3.10;;
71104;SDS011;58760;48.716;8.962;2023-06-05T15:19:01;6.38;;;3.08;;
71104;SDS011;58760;48.716;8.962;2023-06-05T15:21:26;9.98;;;3.35;;
71104;SDS011;58760;48.716;8.962;2023-06-05T15:23:51;6.75;;;3.10;;
71104;SDS011;58760;48.716;8.962;2023-06-05T15:26:17;12.68;;;3.25;;
71104;SDS011;58760;48.716;8.962;2023-06-05T15:28:42;8.32;;;2.90;;
71104;SDS011;58760;48.716;8.962;2023-06-05T15:31:07;7.22;;;2.90;;
71104;SDS011;58760;48.716;8.962;2023-06-05T15:33:33;8.05;;;2.70;;
71104;SDS011;58760;48.716;8.962;2023-06-05T15:35:58;8.18;;;2.88;;
71104;SDS011;58760;48.716;8.962;2023-06-05T15:38:24;6.10;;;3.17;;
71104;SDS011;58760;48.716;8.962;2023-06-05T15:40:49;6.82;;;2.70;;
71104;SDS011;58760;48.716;8.962;2023-06-05T15:43:15;5.93;;;2.45;;
71104;SDS011;58760;48.716;8.962;2023-06-05T15:45:41;7.53;;;2.65;;
71104;SDS011;58760;48.716;8.962;2023-06-05T15:48:07;7.13;;;2.47;;